KSLB

Storm Lake Municipal Airport

Storm Lake, Iowa, USA
METAR KSLB 201655Z AUTO 33018G26KT 10SM CLR 07/M04 A3030 RMK AO2
Observed Flight Rules
Oct-20 @ 16:55 UTC (19 minutes ago) Visual Flight Rules
Wind Visibility Clouds
330° at 18 knots
 Gusting to 26 knots
10 miles
  • Clear skies
Temperatures Readings
Current 7°C / 45°F
Dewpoint -4°C / 25°F
Humidity 46%
Altimeter 30.3" Hg
Pressure 1026 hPa
Elevation 454
METAR KSLB 201655Z AUTO 33018G26KT 10SM CLR 07/M04 A3030 RMK AO2
Observed Flight Rules
Oct-20 @ 16:55 UTC
(19 minutes ago)
VFR
Wind Visibility
330° at 18 knots
 Gusting to 26 knots
10 miles
Clouds
  • Clear skies
Temperature Dewpoint
7°C / 45°F -4°C / 25°F
Humidity Altimeter Pressure
46% 30.3" Hg 1026 hPa